createdAt,value
2017-08-06T00:00:04.929Z,997.98
2017-08-06T00:01:04.954Z,997.98
2017-08-06T00:02:04.991Z,997.99
2017-08-06T00:03:05.018Z,997.99
2017-08-06T00:04:05.046Z,998.03
2017-08-06T00:05:05.069Z,998.04
2017-08-06T00:06:05.108Z,998.05
2017-08-06T00:07:05.132Z,998.05
2017-08-06T00:08:05.159Z,998.06
2017-08-06T00:09:05.186Z,998.06
2017-08-06T00:10:05.209Z,998.06
2017-08-06T00:11:05.247Z,998.07
2017-08-06T00:12:05.272Z,998.05
2017-08-06T00:13:05.298Z,998.1
2017-08-06T00:14:05.330Z,998.11
2017-08-06T00:15:05.358Z,998.11
2017-08-06T00:16:05.390Z,998.13
2017-08-06T00:17:05.416Z,998.08
2017-08-06T00:18:05.444Z,998.13
2017-08-06T00:19:05.474Z,998.11
2017-08-06T00:20:05.501Z,998.11
2017-08-06T00:21:05.527Z,998.13
2017-08-06T00:22:05.560Z,998.14
2017-08-06T00:23:05.585Z,998.14
2017-08-06T00:24:05.613Z,998.16
2017-08-06T00:25:05.645Z,998.13
2017-08-06T00:26:05.671Z,998.18
2017-08-06T00:27:05.704Z,998.17
2017-08-06T00:28:05.729Z,998.2
2017-08-06T00:29:05.757Z,998.21
2017-08-06T00:30:05.790Z,998.2
2017-08-06T00:31:05.816Z,998.21
2017-08-06T00:32:05.845Z,998.18
2017-08-06T00:33:05.878Z,998.17
2017-08-06T00:34:05.902Z,998.18
2017-08-06T00:35:05.926Z,998.14
2017-08-06T00:36:05.954Z,998.18
2017-08-06T00:37:05.986Z,998.23
2017-08-06T00:38:06.009Z,998.22
2017-08-06T00:39:06.043Z,998.17
2017-08-06T00:40:06.071Z,998.17
2017-08-06T00:41:06.100Z,998.21
2017-08-06T00:42:06.131Z,998.17
2017-08-06T00:43:06.159Z,998.18
2017-08-06T00:44:06.188Z,998.15
2017-08-06T00:45:06.218Z,998.11
2017-08-06T00:46:06.244Z,998.14
2017-08-06T00:47:06.268Z,998.17
2017-08-06T00:48:06.297Z,998.14
2017-08-06T00:49:06.326Z,998.15
2017-08-06T00:50:06.364Z,998.15
2017-08-06T00:51:06.384Z,998.21
2017-08-06T00:52:06.411Z,998.21
2017-08-06T00:53:06.438Z,998.18
2017-08-06T00:54:06.472Z,998.2
2017-08-06T00:55:06.499Z,998.18
2017-08-06T00:56:06.523Z,998.2
2017-08-06T00:57:06.552Z,998.22
2017-08-06T00:58:06.582Z,998.26
2017-08-06T00:59:06.605Z,998.23
2017-08-06T01:00:06.640Z,998.24
2017-08-06T01:01:06.664Z,998.29
2017-08-06T01:02:06.697Z,998.31
2017-08-06T01:03:06.726Z,998.3
2017-08-06T01:04:06.751Z,998.35
2017-08-06T01:05:06.781Z,998.32
2017-08-06T01:06:06.808Z,998.3
2017-08-06T01:07:06.837Z,998.31
2017-08-06T01:08:06.865Z,998.32
2017-08-06T01:09:06.915Z,998.34
2017-08-06T01:10:06.923Z,998.32
2017-08-06T01:11:06.952Z,998.34
2017-08-06T01:12:06.981Z,998.35
2017-08-06T01:13:07.010Z,998.36
2017-08-06T01:14:07.035Z,998.33
2017-08-06T01:15:07.064Z,998.4
2017-08-06T01:16:07.091Z,998.4
2017-08-06T01:17:07.121Z,998.41
2017-08-06T01:18:07.150Z,998.4
2017-08-06T01:19:07.179Z,998.41
2017-08-06T01:20:07.208Z,998.4
2017-08-06T01:21:07.237Z,998.45
2017-08-06T01:22:07.260Z,998.42
2017-08-06T01:23:07.291Z,998.44
2017-08-06T01:24:07.322Z,998.45
2017-08-06T01:25:07.350Z,998.46
2017-08-06T01:26:07.377Z,998.46
2017-08-06T01:27:07.401Z,998.46
2017-08-06T01:28:07.433Z,998.47
2017-08-06T01:29:07.463Z,998.42
2017-08-06T01:30:07.492Z,998.43
2017-08-06T01:31:07.521Z,998.46
2017-08-06T01:32:07.546Z,998.46
2017-08-06T01:33:07.575Z,998.46
2017-08-06T01:34:07.604Z,998.45
2017-08-06T01:35:07.627Z,998.48
2017-08-06T01:36:07.662Z,998.5
2017-08-06T01:37:07.690Z,998.52
2017-08-06T01:38:08.018Z,998.52
2017-08-06T01:39:07.748Z,998.52
2017-08-06T01:40:07.777Z,998.53
2017-08-06T01:41:07.801Z,998.48
2017-08-06T01:42:07.830Z,998.49
2017-08-06T01:43:08.110Z,998.51
2017-08-06T01:44:07.887Z,998.52
2017-08-06T01:45:07.915Z,998.51
2017-08-06T01:46:07.945Z,998.57
2017-08-06T01:47:07.974Z,998.61
2017-08-06T01:48:08.306Z,998.6
2017-08-06T01:49:08.033Z,998.57
2017-08-06T01:50:08.056Z,998.59
2017-08-06T01:51:08.084Z,998.59
2017-08-06T01:52:08.113Z,998.61
2017-08-06T01:53:08.444Z,998.64
2017-08-06T01:54:08.171Z,998.61
2017-08-06T01:55:08.206Z,998.6
2017-08-06T01:56:08.227Z,998.59
2017-08-06T01:57:08.257Z,998.61
2017-08-06T01:58:08.583Z,998.62
2017-08-06T01:59:08.314Z,998.64
2017-08-06T02:00:08.343Z,998.62
2017-08-06T02:01:08.371Z,998.61
2017-08-06T02:02:08.405Z,998.6
2017-08-06T02:03:08.727Z,998.56
2017-08-06T02:04:08.459Z,998.59
2017-08-06T02:05:08.488Z,998.59
2017-08-06T02:06:08.512Z,998.58
2017-08-06T02:07:08.544Z,998.6
2017-08-06T02:08:08.866Z,998.58
2017-08-06T02:09:08.596Z,998.61
2017-08-06T02:10:08.630Z,998.6
2017-08-06T02:11:08.655Z,998.63
2017-08-06T02:12:08.678Z,998.63
2017-08-06T02:13:09.007Z,998.67
2017-08-06T02:14:08.733Z,998.63
2017-08-06T02:15:08.764Z,998.6
2017-08-06T02:16:08.793Z,998.65
2017-08-06T02:17:08.822Z,998.64
2017-08-06T02:18:09.160Z,998.63
2017-08-06T02:19:08.876Z,998.61
2017-08-06T02:20:08.901Z,998.62
2017-08-06T02:21:08.933Z,998.66
2017-08-06T02:22:08.963Z,998.66
2017-08-06T02:23:08.991Z,998.64
2017-08-06T02:24:09.025Z,998.68
2017-08-06T02:25:09.042Z,998.63
2017-08-06T02:26:09.072Z,998.67
2017-08-06T02:27:09.102Z,998.67
2017-08-06T02:28:09.131Z,998.65
2017-08-06T02:29:09.160Z,998.71
2017-08-06T02:30:09.186Z,998.68
2017-08-06T02:31:09.219Z,998.71
2017-08-06T02:32:09.243Z,998.73
2017-08-06T02:33:09.272Z,998.68
2017-08-06T02:34:09.300Z,998.73
2017-08-06T02:35:09.351Z,998.75
2017-08-06T02:36:09.358Z,998.76
2017-08-06T02:37:09.391Z,998.76
2017-08-06T02:38:09.417Z,998.75
2017-08-06T02:39:09.441Z,998.76
2017-08-06T02:40:09.470Z,998.75
2017-08-06T02:41:09.503Z,998.79
2017-08-06T02:42:09.528Z,998.79
2017-08-06T02:43:09.556Z,998.75
2017-08-06T02:44:09.582Z,998.74
2017-08-06T02:45:09.610Z,998.74
2017-08-06T02:46:09.638Z,998.8
2017-08-06T02:47:09.663Z,998.76
2017-08-06T02:48:09.693Z,998.77
2017-08-06T02:49:09.720Z,998.79
2017-08-06T02:50:09.749Z,998.76
2017-08-06T02:51:09.778Z,998.76
2017-08-06T02:52:09.807Z,998.76
2017-08-06T02:53:09.834Z,998.8
2017-08-06T02:54:09.864Z,998.81
2017-08-06T02:55:09.893Z,998.8
2017-08-06T02:56:09.922Z,998.82
2017-08-06T02:57:09.948Z,998.84
2017-08-06T02:58:09.977Z,998.84
2017-08-06T02:59:10.001Z,998.8
2017-08-06T03:00:10.035Z,998.82
2017-08-06T03:01:10.063Z,998.83
2017-08-06T03:02:10.087Z,998.84
2017-08-06T03:03:10.117Z,998.82
2017-08-06T03:04:10.141Z,998.82
2017-08-06T03:05:10.174Z,998.86
2017-08-06T03:06:10.202Z,998.89
2017-08-06T03:07:10.227Z,998.88
2017-08-06T03:08:10.253Z,998.91
2017-08-06T03:09:10.283Z,998.93
2017-08-06T03:10:10.314Z,998.94
2017-08-06T03:11:10.354Z,998.95
2017-08-06T03:12:10.372Z,998.93
2017-08-06T03:13:10.397Z,998.93
2017-08-06T03:14:10.429Z,998.95
2017-08-06T03:15:10.454Z,998.94
2017-08-06T03:16:10.483Z,998.94
2017-08-06T03:17:10.512Z,998.93
2017-08-06T03:18:10.541Z,998.97
2017-08-06T03:19:10.565Z,998.98
2017-08-06T03:20:10.595Z,999
2017-08-06T03:21:10.624Z,999.03
2017-08-06T03:22:10.654Z,999.06
2017-08-06T03:23:10.680Z,999.05
2017-08-06T03:24:10.714Z,999.08
2017-08-06T03:25:10.734Z,999.06
2017-08-06T03:26:10.763Z,999.07
2017-08-06T03:27:10.791Z,999.08
2017-08-06T03:28:10.824Z,999.09
2017-08-06T03:29:11.145Z,999.08
2017-08-06T03:30:10.874Z,999.07
2017-08-06T03:31:10.905Z,999.1
2017-08-06T03:32:10.933Z,999.09
2017-08-06T03:33:10.960Z,999.12
2017-08-06T03:34:10.991Z,999.11
2017-08-06T03:35:11.017Z,999.14
2017-08-06T03:36:11.043Z,999.14
2017-08-06T03:37:11.068Z,999.18
2017-08-06T03:38:11.101Z,999.2
2017-08-06T03:39:11.130Z,999.2
2017-08-06T03:40:11.155Z,999.2
2017-08-06T03:41:11.183Z,999.19
2017-08-06T03:42:11.212Z,999.21
2017-08-06T03:43:11.241Z,999.23
2017-08-06T03:44:11.271Z,999.17
2017-08-06T03:45:11.295Z,999.21
2017-08-06T03:46:11.324Z,999.22
2017-08-06T03:47:11.351Z,999.22
2017-08-06T03:48:11.381Z,999.22
2017-08-06T03:49:11.404Z,999.26
2017-08-06T03:50:11.439Z,999.2
2017-08-06T03:51:11.467Z,999.25
2017-08-06T03:52:11.492Z,999.21
2017-08-06T03:53:11.522Z,999.23
2017-08-06T03:54:11.550Z,999.23
2017-08-06T03:55:11.575Z,999.25
2017-08-06T03:56:11.603Z,999.27
2017-08-06T03:57:11.630Z,999.26
2017-08-06T03:58:11.665Z,999.31
2017-08-06T03:59:11.687Z,999.3
2017-08-06T04:00:11.716Z,999.32
2017-08-06T04:01:11.744Z,999.34
2017-08-06T04:02:11.771Z,999.36
2017-08-06T04:03:11.795Z,999.37
2017-08-06T04:04:11.827Z,999.34
2017-08-06T04:05:11.854Z,999.36
2017-08-06T04:06:11.884Z,999.38
2017-08-06T04:07:11.912Z,999.42
2017-08-06T04:08:11.936Z,999.41
2017-08-06T04:09:11.967Z,999.38
2017-08-06T04:10:11.996Z,999.42
2017-08-06T04:11:12.024Z,999.47
2017-08-06T04:12:12.053Z,999.43
2017-08-06T04:13:12.073Z,999.44
2017-08-06T04:14:12.107Z,999.51
2017-08-06T04:15:12.135Z,999.49
2017-08-06T04:16:12.165Z,999.49
2017-08-06T04:17:12.192Z,999.51
2017-08-06T04:18:12.214Z,999.55
2017-08-06T04:19:12.247Z,999.54
2017-08-06T04:20:12.276Z,999.54
2017-08-06T04:21:12.300Z,999.54
2017-08-06T04:22:12.329Z,999.55
2017-08-06T04:23:12.358Z,999.54
2017-08-06T04:24:12.386Z,999.53
2017-08-06T04:25:12.411Z,999.57
2017-08-06T04:26:12.439Z,999.55
2017-08-06T04:27:12.469Z,999.54
2017-08-06T04:28:12.498Z,999.57
2017-08-06T04:29:12.527Z,999.58
2017-08-06T04:30:12.552Z,999.59
2017-08-06T04:31:12.580Z,999.58
2017-08-06T04:32:12.612Z,999.53
2017-08-06T04:33:12.634Z,999.6
2017-08-06T04:34:12.667Z,999.59
2017-08-06T04:35:12.692Z,999.57
2017-08-06T04:36:12.715Z,999.57
2017-08-06T04:37:12.749Z,999.61
2017-08-06T04:38:12.773Z,999.61
2017-08-06T04:39:12.803Z,999.64
2017-08-06T04:40:12.832Z,999.65
2017-08-06T04:41:12.862Z,999.65
2017-08-06T04:42:12.890Z,999.63
2017-08-06T04:43:12.911Z,999.64
2017-08-06T04:44:12.943Z,999.6
2017-08-06T04:45:12.973Z,999.59
2017-08-06T04:46:13.005Z,999.59
2017-08-06T04:47:13.029Z,999.61
2017-08-06T04:48:13.047Z,999.61
2017-08-06T04:49:13.084Z,999.61
2017-08-06T04:50:13.114Z,999.59
2017-08-06T04:51:13.143Z,999.62
2017-08-06T04:52:13.169Z,999.64
2017-08-06T04:53:13.196Z,999.65
2017-08-06T04:54:13.224Z,999.67
2017-08-06T04:55:13.254Z,999.7
2017-08-06T04:56:13.284Z,999.75
2017-08-06T04:57:13.301Z,999.74
2017-08-06T04:58:13.336Z,999.77
2017-08-06T04:59:13.364Z,999.76
2017-08-06T05:00:13.393Z,999.8
2017-08-06T05:01:13.417Z,999.78
2017-08-06T05:02:13.445Z,999.76
2017-08-06T05:03:13.475Z,999.77
2017-08-06T05:04:13.504Z,999.72
2017-08-06T05:05:13.529Z,999.7
2017-08-06T05:06:13.558Z,999.7
2017-08-06T05:07:13.586Z,999.68
2017-08-06T05:08:13.615Z,999.72
2017-08-06T05:09:13.639Z,999.71
2017-08-06T05:10:13.668Z,999.71
2017-08-06T05:11:13.697Z,999.73
2017-08-06T05:12:13.726Z,999.78
2017-08-06T05:13:13.751Z,999.77
2017-08-06T05:14:13.782Z,999.75
2017-08-06T05:15:14.107Z,999.78
2017-08-06T05:16:13.836Z,999.8
2017-08-06T05:17:13.866Z,999.82
2017-08-06T05:18:13.891Z,999.82
2017-08-06T05:19:13.923Z,999.84
2017-08-06T05:20:14.200Z,999.83
2017-08-06T05:21:13.973Z,999.84
2017-08-06T05:22:14.002Z,999.83
2017-08-06T05:23:14.031Z,999.86
2017-08-06T05:24:14.063Z,999.86
2017-08-06T05:25:14.088Z,999.85
2017-08-06T05:26:14.117Z,999.88
2017-08-06T05:27:14.145Z,999.89
2017-08-06T05:28:14.166Z,999.88
2017-08-06T05:29:14.201Z,999.9
2017-08-06T05:30:14.230Z,999.9
2017-08-06T05:31:14.254Z,999.93
2017-08-06T05:32:14.280Z,999.92
2017-08-06T05:33:14.339Z,999.91
2017-08-06T05:34:14.337Z,999.94
2017-08-06T05:35:14.365Z,999.94
2017-08-06T05:36:14.393Z,999.96
2017-08-06T05:37:14.424Z,999.95
2017-08-06T05:38:14.452Z,1000.02
2017-08-06T05:39:14.472Z,1000.06
2017-08-06T05:40:14.505Z,1000.03
2017-08-06T05:41:14.534Z,1000.09
2017-08-06T05:42:14.563Z,1000.08
2017-08-06T05:43:14.595Z,1000.08
2017-08-06T05:44:14.617Z,1000.07
2017-08-06T05:45:14.649Z,1000.1
2017-08-06T05:46:14.673Z,1000.1
2017-08-06T05:47:14.703Z,1000.07
2017-08-06T05:48:14.728Z,1000.12
2017-08-06T05:49:14.752Z,1000.12
2017-08-06T05:50:14.786Z,1000.09
2017-08-06T05:51:14.812Z,1000.12
2017-08-06T05:52:14.840Z,1000.12
2017-08-06T05:53:14.870Z,1000.17
2017-08-06T05:54:14.896Z,1000.15
2017-08-06T05:55:14.923Z,1000.17
2017-08-06T05:56:14.950Z,1000.16
2017-08-06T05:57:14.975Z,1000.19
2017-08-06T05:58:15.008Z,1000.17
2017-08-06T05:59:15.037Z,1000.19
2017-08-06T06:00:15.060Z,1000.18
2017-08-06T06:01:15.086Z,1000.18
2017-08-06T06:02:15.116Z,1000.16
2017-08-06T06:03:15.148Z,1000.21
2017-08-06T06:04:15.177Z,1000.2
2017-08-06T06:05:15.202Z,1000.2
2017-08-06T06:06:15.231Z,1000.22
2017-08-06T06:07:15.259Z,1000.23
2017-08-06T06:08:15.290Z,1000.24
2017-08-06T06:09:15.317Z,1000.21
2017-08-06T06:10:15.342Z,1000.21
2017-08-06T06:11:15.371Z,1000.23
2017-08-06T06:12:15.398Z,1000.27
2017-08-06T06:13:15.425Z,1000.3
2017-08-06T06:14:15.457Z,1000.27
2017-08-06T06:15:15.484Z,1000.29
2017-08-06T06:16:15.511Z,1000.36
2017-08-06T06:17:15.539Z,1000.38
2017-08-06T06:18:15.567Z,1000.39
2017-08-06T06:19:15.596Z,1000.36
2017-08-06T06:20:15.622Z,1000.34
2017-08-06T06:21:15.657Z,1000.39
2017-08-06T06:22:15.676Z,1000.33
2017-08-06T06:23:15.706Z,1000.32
2017-08-06T06:24:15.728Z,1000.34
2017-08-06T06:25:15.762Z,1000.34
2017-08-06T06:26:15.795Z,1000.34
2017-08-06T06:27:15.821Z,1000.39
2017-08-06T06:28:15.849Z,1000.35
2017-08-06T06:29:15.874Z,1000.39
2017-08-06T06:30:15.902Z,1000.4
2017-08-06T06:31:16.230Z,1000.38
2017-08-06T06:32:15.960Z,1000.44
2017-08-06T06:33:15.986Z,1000.4
2017-08-06T06:34:16.015Z,1000.41
2017-08-06T06:35:16.037Z,1000.39
2017-08-06T06:36:16.070Z,1000.39
2017-08-06T06:37:16.096Z,1000.39
2017-08-06T06:38:16.128Z,1000.42
2017-08-06T06:39:16.153Z,1000.4
2017-08-06T06:40:16.182Z,1000.45
2017-08-06T06:41:16.212Z,1000.47
2017-08-06T06:42:16.237Z,1000.48
2017-08-06T06:43:16.266Z,1000.46
2017-08-06T06:44:16.295Z,1000.49
2017-08-06T06:45:16.324Z,1000.48
2017-08-06T06:46:16.352Z,1000.5
2017-08-06T06:47:16.376Z,1000.51
2017-08-06T06:48:16.405Z,1000.5
2017-08-06T06:49:16.433Z,1000.57
2017-08-06T06:50:16.461Z,1000.56
2017-08-06T06:51:16.488Z,1000.62
2017-08-06T06:52:16.516Z,1000.59
2017-08-06T06:53:16.545Z,1000.58
2017-08-06T06:54:16.574Z,1000.59
2017-08-06T06:55:16.599Z,1000.56
2017-08-06T06:56:16.628Z,1000.59
2017-08-06T06:57:16.657Z,1000.54
2017-08-06T06:58:16.686Z,1000.57
2017-08-06T06:59:16.714Z,1000.59
2017-08-06T07:00:16.738Z,1000.64
2017-08-06T07:01:16.773Z,1000.63
2017-08-06T07:02:16.797Z,1000.63
2017-08-06T07:03:16.825Z,1000.64
2017-08-06T07:04:16.856Z,1000.63
2017-08-06T07:05:16.876Z,1000.62
2017-08-06T07:06:16.908Z,1000.63
2017-08-06T07:07:16.938Z,1000.64
2017-08-06T07:08:16.966Z,1000.6
2017-08-06T07:09:16.990Z,1000.58
2017-08-06T07:10:17.019Z,1000.57
2017-08-06T07:11:17.044Z,1000.58
2017-08-06T07:12:17.075Z,1000.61
2017-08-06T07:13:17.100Z,1000.59
2017-08-06T07:14:17.130Z,1000.6
2017-08-06T07:15:17.159Z,1000.62
2017-08-06T07:16:17.183Z,1000.63
2017-08-06T07:17:17.221Z,1000.68
2017-08-06T07:18:17.242Z,1000.63
2017-08-06T07:19:17.272Z,1000.6
2017-08-06T07:20:17.304Z,1000.63
2017-08-06T07:21:17.328Z,1000.65
2017-08-06T07:22:17.357Z,1000.63
2017-08-06T07:23:17.382Z,1000.62
2017-08-06T07:24:17.411Z,1000.61
2017-08-06T07:25:17.439Z,1000.66
2017-08-06T07:26:17.469Z,1000.63
2017-08-06T07:27:17.497Z,1000.65
2017-08-06T07:28:17.522Z,1000.66
2017-08-06T07:29:17.551Z,1000.61
2017-08-06T07:30:17.579Z,1000.61
2017-08-06T07:31:17.603Z,1000.61
2017-08-06T07:32:17.933Z,1000.62
2017-08-06T07:33:17.662Z,1000.57
2017-08-06T07:34:17.689Z,1000.61
2017-08-06T07:35:17.714Z,1000.63
2017-08-06T07:36:17.746Z,1000.66
2017-08-06T07:37:18.024Z,1000.62
2017-08-06T07:38:17.805Z,1000.64
2017-08-06T07:39:17.831Z,1000.63
2017-08-06T07:40:17.856Z,1000.64
2017-08-06T07:41:17.885Z,1000.63
2017-08-06T07:42:18.276Z,1000.63
2017-08-06T07:43:17.942Z,1000.63
2017-08-06T07:44:17.967Z,1000.65
2017-08-06T07:45:18.000Z,1000.68
2017-08-06T07:46:18.021Z,1000.69
2017-08-06T07:47:18.053Z,1000.67
2017-08-06T07:48:18.082Z,1000.68
2017-08-06T07:49:18.110Z,1000.72
2017-08-06T07:50:18.137Z,1000.73
2017-08-06T07:51:18.161Z,1000.7
2017-08-06T07:52:18.194Z,1000.72
2017-08-06T07:53:18.221Z,1000.71
2017-08-06T07:54:18.254Z,1000.73
2017-08-06T07:55:18.276Z,1000.71
2017-08-06T07:56:18.317Z,1000.65
2017-08-06T07:57:18.334Z,1000.67
2017-08-06T07:58:18.361Z,1000.73
2017-08-06T07:59:18.391Z,1000.73
2017-08-06T08:00:18.414Z,1000.72
2017-08-06T08:01:18.444Z,1000.71
2017-08-06T08:02:18.474Z,1000.73
2017-08-06T08:03:18.501Z,1000.74
2017-08-06T08:04:18.531Z,1000.75
2017-08-06T08:05:18.560Z,1000.75
2017-08-06T08:06:18.585Z,1000.74
2017-08-06T08:07:18.614Z,1000.76
2017-08-06T08:08:18.642Z,1000.74
2017-08-06T08:09:18.670Z,1000.71
2017-08-06T08:10:18.695Z,1000.74
2017-08-06T08:11:18.724Z,1000.77
2017-08-06T08:12:18.757Z,1000.77
2017-08-06T08:13:18.779Z,1000.77
2017-08-06T08:14:18.811Z,1000.75
2017-08-06T08:15:18.836Z,1000.79
2017-08-06T08:16:18.868Z,1000.79
2017-08-06T08:17:18.894Z,1000.8
2017-08-06T08:18:18.923Z,1000.78
2017-08-06T08:19:18.946Z,1000.76
2017-08-06T08:20:18.976Z,1000.76
2017-08-06T08:21:19.001Z,1000.77
2017-08-06T08:22:19.034Z,1000.77
2017-08-06T08:23:19.062Z,1000.75
2017-08-06T08:24:19.087Z,1000.73
2017-08-06T08:25:19.117Z,1000.75
2017-08-06T08:26:19.145Z,1000.73
2017-08-06T08:27:19.178Z,1000.73
2017-08-06T08:28:19.199Z,1000.76
2017-08-06T08:29:19.230Z,1000.74
2017-08-06T08:30:19.257Z,1000.74
2017-08-06T08:31:19.286Z,1000.74
2017-08-06T08:32:19.313Z,1000.72
2017-08-06T08:33:19.338Z,1000.79
2017-08-06T08:34:19.362Z,1000.78
2017-08-06T08:35:19.394Z,1000.77
2017-08-06T08:36:19.425Z,1000.78
2017-08-06T08:37:19.454Z,1000.79
2017-08-06T08:38:19.479Z,1000.78
2017-08-06T08:39:19.507Z,1000.76
2017-08-06T08:40:19.532Z,1000.76
2017-08-06T08:41:19.567Z,1000.75
2017-08-06T08:42:19.594Z,1000.76
2017-08-06T08:43:19.922Z,1000.75
2017-08-06T08:44:19.647Z,1000.82
2017-08-06T08:45:19.677Z,1000.81
2017-08-06T08:46:19.706Z,1000.83
2017-08-06T08:47:19.734Z,1000.82
2017-08-06T08:48:20.058Z,1000.82
2017-08-06T08:49:19.787Z,1000.8
2017-08-06T08:50:19.813Z,1000.83
2017-08-06T08:51:19.845Z,1000.87
2017-08-06T08:52:19.874Z,1000.82
2017-08-06T08:53:20.151Z,1000.85
2017-08-06T08:54:19.929Z,1000.82
2017-08-06T08:55:19.953Z,1000.87
2017-08-06T08:56:19.981Z,1000.83
2017-08-06T08:57:20.016Z,1000.86
2017-08-06T08:58:20.043Z,1000.89
2017-08-06T08:59:20.065Z,1000.89
2017-08-06T09:00:20.094Z,1000.85
2017-08-06T09:01:20.126Z,1000.89
2017-08-06T09:02:20.155Z,1000.92
2017-08-06T09:03:20.183Z,1000.81
2017-08-06T09:04:20.209Z,1000.85
2017-08-06T09:05:20.237Z,1000.84
2017-08-06T09:06:20.268Z,1000.77
2017-08-06T09:07:20.296Z,1000.82
2017-08-06T09:08:20.324Z,1000.79
2017-08-06T09:09:20.352Z,1000.78
2017-08-06T09:10:20.378Z,1000.77
2017-08-06T09:11:20.407Z,1000.75
2017-08-06T09:12:20.435Z,1000.75
2017-08-06T09:13:20.469Z,1000.73
2017-08-06T09:14:20.490Z,1000.79
2017-08-06T09:15:20.520Z,1000.8
2017-08-06T09:16:20.546Z,1000.78
2017-08-06T09:17:20.586Z,1000.77
2017-08-06T09:18:20.604Z,1000.78
2017-08-06T09:19:20.633Z,1000.78
2017-08-06T09:20:20.662Z,1000.8
2017-08-06T09:21:20.690Z,1000.81
2017-08-06T09:22:20.714Z,1000.73
2017-08-06T09:23:20.744Z,1000.78
2017-08-06T09:24:20.769Z,1000.77
2017-08-06T09:25:20.807Z,1000.78
2017-08-06T09:26:20.826Z,1000.75
2017-08-06T09:27:20.887Z,1000.78
2017-08-06T09:28:20.883Z,1000.81
2017-08-06T09:29:20.908Z,1000.77
2017-08-06T09:30:20.942Z,1000.8
2017-08-06T09:31:20.971Z,1000.76
2017-08-06T09:32:21.015Z,1000.77
2017-08-06T09:33:21.028Z,1000.74
2017-08-06T09:34:21.056Z,1000.77
2017-08-06T09:35:21.084Z,1000.71
2017-08-06T09:36:21.113Z,1000.78
2017-08-06T09:37:21.138Z,1000.68
2017-08-06T09:38:21.168Z,1000.7
2017-08-06T09:39:21.194Z,1000.7
2017-08-06T09:40:21.225Z,1000.66
2017-08-06T09:41:21.255Z,1000.65
2017-08-06T09:42:21.283Z,1000.67
2017-08-06T09:43:21.313Z,1000.64
2017-08-06T09:44:21.342Z,1000.67
2017-08-06T09:45:21.367Z,1000.74
2017-08-06T09:46:21.390Z,1000.79
2017-08-06T09:47:21.422Z,1000.76
2017-08-06T09:48:21.452Z,1000.73
2017-08-06T09:49:21.481Z,1000.72
2017-08-06T09:50:21.510Z,1000.71
2017-08-06T09:51:21.551Z,1000.77
2017-08-06T09:52:21.564Z,1000.72
2017-08-06T09:53:21.593Z,1000.7
2017-08-06T09:54:21.620Z,1000.7
2017-08-06T09:55:21.650Z,1000.69
2017-08-06T09:56:21.680Z,1000.66
2017-08-06T09:57:21.706Z,1000.71
2017-08-06T09:58:21.732Z,1000.69
2017-08-06T09:59:21.765Z,1000.66
2017-08-06T10:00:21.790Z,1000.67
2017-08-06T10:01:21.819Z,1000.65
2017-08-06T10:02:21.846Z,1000.66
2017-08-06T10:03:21.871Z,1000.65
2017-08-06T10:04:21.905Z,1000.69
2017-08-06T10:05:21.934Z,1000.72
2017-08-06T10:06:21.958Z,1000.65
2017-08-06T10:07:21.991Z,1000.69
2017-08-06T10:08:22.017Z,1000.67
2017-08-06T10:09:22.045Z,1000.64
2017-08-06T10:10:22.075Z,1000.67
2017-08-06T10:11:22.107Z,1000.67
2017-08-06T10:12:22.130Z,1000.66
2017-08-06T10:13:22.156Z,1000.64
2017-08-06T10:14:22.190Z,1000.71
2017-08-06T10:15:22.218Z,1000.7
2017-08-06T10:16:22.242Z,1000.67
2017-08-06T10:17:22.272Z,1000.64
2017-08-06T10:18:22.300Z,1000.67
2017-08-06T10:19:22.329Z,1000.69
2017-08-06T10:20:22.358Z,1000.65
2017-08-06T10:21:22.385Z,1000.69
2017-08-06T10:22:22.416Z,1000.68
2017-08-06T10:23:22.439Z,1000.68
2017-08-06T10:24:22.469Z,1000.65
2017-08-06T10:25:22.506Z,1000.63
2017-08-06T10:26:22.525Z,1000.66
2017-08-06T10:27:22.557Z,1000.65
2017-08-06T10:28:22.585Z,1000.64
2017-08-06T10:29:22.614Z,1000.6
2017-08-06T10:30:22.644Z,1000.6
2017-08-06T10:31:22.671Z,1000.57
2017-08-06T10:32:22.696Z,1000.58
2017-08-06T10:33:22.725Z,1000.58
2017-08-06T10:34:22.750Z,1000.52
2017-08-06T10:35:22.783Z,1000.52
2017-08-06T10:36:22.813Z,1000.51
2017-08-06T10:37:22.845Z,1000.54
2017-08-06T10:38:22.870Z,1000.47
2017-08-06T10:39:22.897Z,1000.51
2017-08-06T10:40:22.923Z,1000.52
2017-08-06T10:41:22.951Z,1000.51
2017-08-06T10:42:22.980Z,1000.57
2017-08-06T10:43:23.001Z,1000.58
2017-08-06T10:44:23.289Z,1000.57
2017-08-06T10:45:23.070Z,1000.58
2017-08-06T10:46:23.095Z,1000.57
2017-08-06T10:47:23.126Z,1000.57
2017-08-06T10:48:23.151Z,1000.52
2017-08-06T10:49:23.428Z,1000.52
2017-08-06T10:50:23.210Z,1000.53
2017-08-06T10:51:23.239Z,1000.49
2017-08-06T10:52:23.262Z,1000.48
2017-08-06T10:53:23.292Z,1000.47
2017-08-06T10:54:23.621Z,1000.49
2017-08-06T10:55:23.348Z,1000.49
2017-08-06T10:56:23.377Z,1000.51
2017-08-06T10:57:23.407Z,1000.46
2017-08-06T10:58:23.437Z,1000.44
2017-08-06T10:59:23.764Z,1000.45
2017-08-06T11:00:23.492Z,1000.47
2017-08-06T11:01:23.519Z,1000.41
2017-08-06T11:02:23.552Z,1000.36
2017-08-06T11:03:23.581Z,1000.36
2017-08-06T11:04:23.862Z,1000.33
2017-08-06T11:05:23.637Z,1000.37
2017-08-06T11:06:23.663Z,1000.4
2017-08-06T11:07:23.692Z,1000.35
2017-08-06T11:08:23.716Z,1000.32
2017-08-06T11:09:24.053Z,1000.31
2017-08-06T11:10:23.782Z,1000.3
2017-08-06T11:11:23.811Z,1000.29
2017-08-06T11:12:23.840Z,1000.32
2017-08-06T11:13:23.869Z,1000.33
2017-08-06T11:14:24.194Z,1000.34
2017-08-06T11:15:23.922Z,1000.37
2017-08-06T11:16:23.951Z,1000.3
2017-08-06T11:17:23.980Z,1000.29
2017-08-06T11:18:24.009Z,1000.3
2017-08-06T11:19:24.036Z,1000.3
2017-08-06T11:20:24.061Z,1000.32
2017-08-06T11:21:24.094Z,1000.29
2017-08-06T11:22:24.124Z,1000.28
2017-08-06T11:23:24.152Z,1000.27
2017-08-06T11:24:24.181Z,1000.3
2017-08-06T11:25:24.206Z,1000.28
2017-08-06T11:26:24.240Z,1000.31
2017-08-06T11:27:24.265Z,1000.32
2017-08-06T11:28:24.297Z,1000.33
2017-08-06T11:29:24.326Z,1000.26
2017-08-06T11:30:24.354Z,1000.33
2017-08-06T11:31:24.382Z,1000.33
2017-08-06T11:32:24.411Z,1000.3
2017-08-06T11:33:24.440Z,1000.29
2017-08-06T11:34:24.471Z,1000.3
2017-08-06T11:35:24.497Z,1000.28
2017-08-06T11:36:24.524Z,1000.35
2017-08-06T11:37:24.556Z,1000.29
2017-08-06T11:38:24.585Z,1000.26
2017-08-06T11:39:24.610Z,1000.26
2017-08-06T11:40:24.635Z,1000.31
2017-08-06T11:41:24.671Z,1000.28
2017-08-06T11:42:24.701Z,1000.32
2017-08-06T11:43:24.729Z,1000.34
2017-08-06T11:44:24.754Z,1000.37
2017-08-06T11:45:24.782Z,1000.36
2017-08-06T11:46:24.813Z,1000.31
2017-08-06T11:47:24.844Z,1000.23
2017-08-06T11:48:24.873Z,1000.28
2017-08-06T11:49:24.902Z,1000.3
2017-08-06T11:50:24.935Z,1000.32
2017-08-06T11:51:24.963Z,1000.38
2017-08-06T11:52:24.992Z,1000.36
2017-08-06T11:53:25.016Z,1000.38
2017-08-06T11:54:25.052Z,1000.2
2017-08-06T11:55:25.083Z,1000.14
2017-08-06T11:56:25.117Z,1000.16
2017-08-06T11:57:25.144Z,1000.27
2017-08-06T11:58:25.175Z,1000.31
2017-08-06T11:59:25.210Z,1000.37
2017-08-06T12:00:25.231Z,1000.4
2017-08-06T12:01:25.265Z,1000.35
2017-08-06T12:02:25.296Z,1000.32
2017-08-06T12:03:25.329Z,1000.34
2017-08-06T12:04:25.358Z,1000.35
2017-08-06T12:05:25.389Z,1000.38
2017-08-06T12:06:25.419Z,1000.33
2017-08-06T12:07:25.451Z,1000.33
2017-08-06T12:08:25.486Z,1000.32
2017-08-06T12:09:25.515Z,1000.3
2017-08-06T12:10:25.547Z,1000.27
2017-08-06T12:11:25.581Z,1000.25
2017-08-06T12:12:25.608Z,1000.2
2017-08-06T12:13:25.641Z,1000.2
2017-08-06T12:14:25.677Z,1000.22
2017-08-06T12:15:25.715Z,1000.21
2017-08-06T12:16:25.740Z,1000.18
2017-08-06T12:17:25.772Z,1000.17
2017-08-06T12:18:25.801Z,1000.17